Time;durP1;ratioP1;P1;durP2;ratioP2;P2;SDS_P1;SDS_P2;PMS_P1;PMS_P2;Temp;Humidity;BMP_temperature;BMP_pressure;BME280_temperature;BME280_humidity;BME280_pressure;Samples;Min_cycle;Max_cycle;Signal;HPM_P1;HPM_P2
2022/01/27 00:03:38;;;;;;;28.40;9.23;;;;;;;-1.60;100.00;100159.78;5014383;28;20027;-71
2022/01/27 00:05:35;;;;;;;28.60;9.43;;;;;;;-1.49;100.00;100163.56;4990138;28;20049;-71
2022/01/27 00:13:13;;;;;;;25.95;8.48;;;;;;;-1.53;100.00;100165.53;4997772;28;20014;-72
2022/01/27 00:15:40;;;;;;;25.90;8.73;;;;;;;-1.58;100.00;100152.56;5001598;28;20045;-72
2022/01/27 00:18:13;;;;;;;24.92;10.27;;;;;;;-1.49;100.00;100160.91;5002415;28;20031;-72
2022/01/27 00:20:39;;;;;;;35.55;10.00;;;;;;;-1.64;100.00;100137.00;5003825;28;20018;-72
2022/01/27 00:23:04;;;;;;;28.90;9.73;;;;;;;-1.55;100.00;100151.50;4989193;28;20372;-72
2022/01/27 00:25:29;;;;;;;30.92;10.13;;;;;;;-1.57;100.00;100143.66;4984025;28;20121;-72
2022/01/27 00:27:55;;;;;;;28.50;9.48;;;;;;;-1.49;100.00;100143.19;4976638;28;20058;-72
2022/01/27 00:30:20;;;;;;;28.67;10.18;;;;;;;-1.55;100.00;100144.44;4982619;28;20038;-71
2022/01/27 00:32:45;;;;;;;27.02;9.68;;;;;;;-1.58;100.00;100152.56;5000991;28;20026;-72
2022/01/27 00:35:11;;;;;;;27.73;9.90;;;;;;;-1.59;100.00;100157.97;4999205;28;20043;-72
2022/01/27 00:37:36;;;;;;;25.40;8.98;;;;;;;-1.59;100.00;100152.66;5000541;28;20026;-71
2022/01/27 00:40:03;;;;;;;27.45;9.85;;;;;;;-1.51;100.00;100154.84;4996939;28;20065;-72
2022/01/27 00:42:29;;;;;;;25.52;10.07;;;;;;;-1.48;100.00;100158.16;4982041;28;20038;-72
2022/01/27 00:44:56;;;;;;;31.00;10.30;;;;;;;-1.60;100.00;100150.94;4979920;28;20026;-72
2022/01/27 00:47:21;;;;;;;24.98;9.43;;;;;;;-1.46;100.00;100168.69;4976546;28;20030;-72
2022/01/27 00:49:46;;;;;;;22.08;8.50;;;;;;;-1.46;100.00;100174.00;4975462;28;20031;-72
2022/01/27 00:52:16;;;;;;;23.88;8.55;;;;;;;-1.53;99.22;100154.94;4979868;28;20039;-72
2022/01/27 00:54:43;;;;;;;20.67;8.43;;;;;;;-1.74;99.46;100146.47;4971507;28;20455;-72
2022/01/27 00:57:29;;;;;;;31.00;9.63;;;;;;;-1.77;99.22;100136.03;4975203;28;20041;-72
2022/01/27 00:59:58;;;;;;;25.17;9.07;;;;;;;-1.63;98.78;100162.59;4984772;28;20030;-72
2022/01/27 01:02:39;;;;;;;24.60;9.00;;;;;;;-1.68;98.98;100158.50;4983713;28;20396;-72
2022/01/27 01:07:38;;;;;;;20.80;6.82;;;;;;;-1.72;99.44;100157.84;4982389;28;20058;-72
2022/01/27 01:10:57;;;;;;;26.35;8.68;;;;;;;-1.58;98.98;100162.31;4979013;28;20034;-72
2022/01/27 01:15:30;;;;;;;27.40;9.13;;;;;;;-1.84;99.14;100130.25;4985380;28;20031;-72
2022/01/27 01:18:06;;;;;;;24.58;10.05;;;;;;;-1.81;99.89;100137.16;4985141;28;20035;-72
2022/01/27 01:33:58;;;;;;;26.25;9.63;;;;;;;-1.88;100.00;100115.47;4981072;28;20038;-71
2022/01/27 01:36:38;;;;;;;24.98;9.80;;;;;;;-1.65;100.00;100147.69;4984944;28;20476;-72
2022/01/27 01:39:06;;;;;;;22.63;8.18;;;;;;;-1.70;99.44;100148.00;4991401;28;20117;-72
2022/01/27 01:41:32;;;;;;;22.87;9.07;;;;;;;-1.87;100.00;100140.19;4992714;28;20479;-71
2022/01/27 01:43:58;;;;;;;27.67;9.25;;;;;;;-1.85;100.00;100143.63;4985348;28;20480;-71
2022/01/27 01:46:24;;;;;;;28.98;9.85;;;;;;;-1.86;100.00;100126.84;4981224;28;20045;-71
2022/01/27 01:48:49;;;;;;;25.63;9.20;;;;;;;-1.74;100.00;100129.69;4997309;28;20018;-72
2022/01/27 01:51:24;;;;;;;25.38;9.00;;;;;;;-1.82;100.00;100111.59;4981388;28;20042;-72
2022/01/27 01:53:49;;;;;;;26.20;8.57;;;;;;;-1.71;100.00;100119.75;4990616;28;20093;-72
2022/01/27 01:56:15;;;;;;;25.15;9.20;;;;;;;-1.77;99.98;100112.16;4974233;28;20034;-72
2022/01/27 01:58:40;;;;;;;28.27;8.45;;;;;;;-1.71;100.00;100111.78;4979044;28;20162;-72
2022/01/27 02:01:06;;;;;;;24.90;8.98;;;;;;;-1.74;100.00;100093.41;4989674;28;20101;-72
2022/01/27 02:03:31;;;;;;;36.45;10.40;;;;;;;-1.74;99.91;100098.72;4992743;28;20034;-72
2022/01/27 02:05:57;;;;;;;24.15;9.15;;;;;;;-1.90;100.00;100084.69;4982598;28;20131;-72
2022/01/27 02:19:23;;;;;;;19.60;7.65;;;;;;;-1.68;100.00;100095.69;4982932;28;20056;-72
2022/01/27 02:21:57;;;;;;;30.10;9.38;;;;;;;-1.73;100.00;100100.41;4975629;28;20031;-72
2022/01/27 02:24:25;;;;;;;25.13;9.57;;;;;;;-1.58;100.00;100111.91;4977770;28;20524;-72
2022/01/27 02:26:52;;;;;;;24.02;9.40;;;;;;;-1.55;100.00;100106.41;4985943;28;20439;-72
2022/01/27 02:29:20;;;;;;;28.48;9.40;;;;;;;-1.49;100.00;100107.81;4977248;28;20053;-72
2022/01/27 02:31:47;;;;;;;28.17;9.13;;;;;;;-1.52;100.00;100100.03;4981588;28;20029;-72
2022/01/27 02:34:12;;;;;;;25.67;9.80;;;;;;;-1.75;99.34;100081.09;4989416;28;20035;-73
2022/01/27 02:36:38;;;;;;;28.23;9.68;;;;;;;-1.63;100.00;100106.00;4985368;28;20510;-72
2022/01/27 02:39:05;;;;;;;25.60;9.43;;;;;;;-1.66;100.00;100107.06;4991855;28;20453;-71
2022/01/27 02:41:36;;;;;;;27.10;9.25;;;;;;;-1.73;100.00;100096.91;4990046;28;20085;-71
2022/01/27 02:44:02;;;;;;;26.52;8.45;;;;;;;-1.74;100.00;100103.19;4982795;28;20026;-72
2022/01/27 02:46:36;;;;;;;29.90;9.60;;;;;;;-1.81;100.00;100090.28;4982211;28;20032;-72
2022/01/27 02:49:02;;;;;;;24.48;8.70;;;;;;;-1.75;100.00;100120.91;4982529;28;20447;-72
2022/01/27 02:51:27;;;;;;;27.23;9.52;;;;;;;-1.75;100.00;100123.56;4975611;28;20073;-72
2022/01/27 02:53:55;;;;;;;24.80;9.23;;;;;;;-1.67;100.00;100115.97;4983101;28;20438;-71
2022/01/27 02:56:20;;;;;;;31.90;10.00;;;;;;;-1.81;100.00;100115.94;4988302;28;20085;-71
2022/01/27 02:58:45;;;;;;;28.52;9.23;;;;;;;-1.69;100.00;100114.38;4981083;28;20038;-71
2022/01/27 03:01:11;;;;;;;25.45;8.68;;;;;;;-1.79;100.00;100106.94;4980559;28;20037;-72
2022/01/27 03:03:36;;;;;;;30.27;10.15;;;;;;;-1.83;100.00;100113.41;4982346;28;20030;-71
2022/01/27 03:06:01;;;;;;;32.03;10.32;;;;;;;-1.72;100.00;100117.22;4978621;28;20842;-71
2022/01/27 03:08:27;;;;;;;24.55;9.32;;;;;;;-1.74;100.00;100106.69;4983430;28;20038;-72
2022/01/27 03:11:02;;;;;;;33.17;9.95;;;;;;;-1.81;100.00;100097.38;4992427;28;20018;-72
2022/01/27 03:13:30;;;;;;;30.75;9.63;;;;;;;-1.88;100.00;100104.88;5006552;28;20098;-72
2022/01/27 03:15:55;;;;;;;30.65;9.40;;;;;;;-1.79;100.00;100109.59;5008397;28;20045;-72
2022/01/27 03:18:20;;;;;;;29.70;9.18;;;;;;;-1.81;100.00;100107.97;5002622;28;20037;-73
2022/01/27 03:20:46;;;;;;;24.17;9.70;;;;;;;-1.76;100.00;100111.22;5006808;28;20045;-73
2022/01/27 03:23:11;;;;;;;29.83;9.57;;;;;;;-1.80;100.00;100109.72;5002631;28;20078;-72
2022/01/27 03:25:37;;;;;;;27.15;9.57;;;;;;;-1.82;100.00;100090.38;5007640;28;20054;-72
2022/01/27 03:28:02;;;;;;;36.78;10.57;;;;;;;-1.87;100.00;100093.28;4991911;28;20045;-72
2022/01/27 03:30:27;;;;;;;25.83;9.40;;;;;;;-1.88;100.00;100075.69;4981651;28;20623;-72
2022/01/27 03:32:53;;;;;;;30.67;9.27;;;;;;;-1.91;100.00;100073.22;4979402;28;20501;-72
2022/01/27 03:35:18;;;;;;;30.50;9.60;;;;;;;-1.77;100.00;100085.63;4986293;28;20153;-72
2022/01/27 03:37:43;;;;;;;31.83;11.07;;;;;;;-1.96;100.00;100055.88;4980706;28;20552;-72
2022/01/27 03:40:09;;;;;;;29.20;11.07;;;;;;;-1.89;100.00;100089.03;4984662;28;20030;-72
2022/01/27 03:42:43;;;;;;;32.55;10.10;;;;;;;-1.73;100.00;100078.34;4977294;28;20030;-72
2022/01/27 03:45:09;;;;;;;33.33;11.98;;;;;;;-1.80;100.00;100084.03;4981007;28;20031;-72
2022/01/27 03:47:34;;;;;;;34.03;11.65;;;;;;;-1.86;100.00;100057.88;4981196;28;20106;-72
2022/01/27 03:49:59;;;;;;;38.90;10.93;;;;;;;-1.77;100.00;100067.06;4979849;28;20062;-72
2022/01/27 03:52:25;;;;;;;34.40;10.82;;;;;;;-1.81;100.00;100063.75;4982288;28;20133;-72
2022/01/27 03:54:50;;;;;;;29.77;9.95;;;;;;;-1.79;100.00;100063.66;4981886;28;20411;-72
2022/01/27 03:57:16;;;;;;;33.47;10.95;;;;;;;-1.85;100.00;100048.97;4988862;28;20037;-72
2022/01/27 03:59:41;;;;;;;32.55;10.63;;;;;;;-1.92;100.00;100042.31;4978875;28;20117;-72
2022/01/27 04:02:06;;;;;;;36.53;10.57;;;;;;;-2.10;100.00;99999.22;4977719;28;20032;-72
2022/01/27 04:04:32;;;;;;;33.85;11.07;;;;;;;-1.87;100.00;100027.00;5001592;28;20015;-72
2022/01/27 04:06:58;;;;;;;34.70;10.48;;;;;;;-1.64;100.00;100046.78;4981653;28;20125;-72
2022/01/27 04:09:24;;;;;;;32.65;10.98;;;;;;;-1.69;100.00;100054.19;4982820;28;20022;-72
2022/01/27 04:11:50;;;;;;;36.83;12.25;;;;;;;-1.76;100.00;100036.94;4973529;28;20031;-72
2022/01/27 04:14:15;;;;;;;37.20;11.52;;;;;;;-1.87;100.00;100021.69;4979945;28;20506;-72
2022/01/27 04:16:41;;;;;;;34.85;11.75;;;;;;;-1.79;100.00;100042.44;4982719;28;20498;-72
2022/01/27 04:19:06;;;;;;;33.88;11.57;;;;;;;-1.83;100.00;100035.63;4970936;28;20030;-72
2022/01/27 04:21:32;;;;;;;36.03;11.63;;;;;;;-1.68;100.00;100039.13;4970560;28;20038;-72
2022/01/27 04:23:57;;;;;;;36.78;11.32;;;;;;;-1.72;100.00;100027.84;4975297;28;20062;-72
2022/01/27 04:26:34;;;;;;;33.67;11.93;;;;;;;-1.73;100.00;100034.09;4985310;28;20554;-72
2022/01/27 04:28:59;;;;;;;30.83;12.15;;;;;;;-1.69;100.00;100046.22;4979710;28;20069;-72
2022/01/27 04:31:26;;;;;;;42.47;13.07;;;;;;;-1.67;100.00;100057.59;4981826;28;20503;-72
2022/01/27 04:33:52;;;;;;;39.95;11.95;;;;;;;-1.64;100.00;100072.47;4980511;28;20078;-72
2022/01/27 04:36:25;;;;;;;39.33;12.50;;;;;;;-1.73;100.00;100054.47;4982075;28;20030;-72
2022/01/27 04:39:03;;;;;;;39.05;12.73;;;;;;;-1.75;100.00;100045.78;4982797;28;20337;-72
2022/01/27 04:41:37;;;;;;;40.38;12.13;;;;;;;-1.73;100.00;100036.72;4969903;28;20053;-72
2022/01/27 04:44:24;;;;;;;37.28;12.10;;;;;;;-1.69;100.00;100048.03;4999153;28;20022;-72
2022/01/27 04:49:15;;;;;;;38.40;12.27;;;;;;;-1.78;100.00;100045.00;4971052;28;20493;-71
2022/01/27 04:51:40;;;;;;;38.08;11.48;;;;;;;-1.75;100.00;100045.78;4974139;28;20027;-72
2022/01/27 04:54:16;;;;;;;43.35;11.93;;;;;;;-1.83;100.00;100048.88;4986287;28;20038;-72
2022/01/27 04:56:42;;;;;;;43.17;12.30;;;;;;;-1.83;100.00;100051.53;4976724;28;20076;-72
2022/01/27 04:59:15;;;;;;;37.92;11.73;;;;;;;-1.77;100.00;100032.59;4985702;28;20423;-75
2022/01/27 05:01:52;;;;;;;44.05;12.15;;;;;;;-1.73;100.00;100025.28;4975093;28;20039;-76
2022/01/27 05:04:20;;;;;;;40.17;12.27;;;;;;;-1.75;100.00;100027.19;4985430;28;20093;-76
2022/01/27 05:06:48;;;;;;;39.58;12.80;;;;;;;-1.92;100.00;100014.97;4979788;28;20088;-74
2022/01/27 05:09:14;;;;;;;44.58;12.80;;;;;;;-1.86;100.00;100007.50;4984549;28;20081;-76
2022/01/27 05:14:34;;;;;;;40.90;12.45;;;;;;;-1.84;100.00;100025.94;4966709;28;20130;-74
2022/01/27 05:16:59;;;;;;;45.88;11.57;;;;;;;-1.99;100.00;100018.00;4979813;28;20502;-73
2022/01/27 05:19:25;;;;;;;43.55;12.60;;;;;;;-1.79;100.00;100023.88;4995881;28;20086;-72
2022/01/27 05:21:50;;;;;;;38.70;12.02;;;;;;;-1.92;100.00;100007.00;4977260;28;20125;-77
2022/01/27 05:24:16;;;;;;;43.63;12.52;;;;;;;-2.14;100.00;99983.59;4986562;28;20022;-73
2022/01/27 05:26:42;;;;;;;43.28;13.38;;;;;;;-1.89;100.00;100020.06;4990961;28;20026;-74
2022/01/27 05:29:09;;;;;;;42.42;13.48;;;;;;;-1.78;100.00;100026.44;4988288;28;20093;-80
2022/01/27 05:31:35;;;;;;;40.70;12.48;;;;;;;-2.01;100.00;99996.00;4986841;28;20028;-80
2022/01/27 05:34:00;;;;;;;47.40;13.18;;;;;;;-1.70;100.00;100041.88;4994328;28;20034;-72
2022/01/27 05:36:27;;;;;;;40.33;11.68;;;;;;;-1.78;100.00;100025.59;4986494;28;20037;-80
2022/01/27 05:38:53;;;;;;;40.58;11.25;;;;;;;-1.71;100.00;100037.50;5001069;28;20117;-73
2022/01/27 05:41:18;;;;;;;40.10;12.10;;;;;;;-1.81;100.00;100020.44;4985975;28;20448;-78
2022/01/27 05:43:44;;;;;;;39.22;12.60;;;;;;;-1.93;100.00;100029.19;4986090;28;20026;-78
2022/01/27 05:46:10;;;;;;;48.03;13.30;;;;;;;-2.12;100.00;100001.13;4978802;28;20025;-78
2022/01/27 05:48:35;;;;;;;40.03;11.77;;;;;;;-2.20;100.00;100006.06;4981707;28;20031;-75
2022/01/27 05:51:01;;;;;;;41.10;13.38;;;;;;;-1.93;100.00;100037.13;4986045;28;20072;-76
2022/01/27 05:53:28;;;;;;;44.28;12.32;;;;;;;-1.95;100.00;100020.47;4979712;28;20034;-74
2022/01/27 05:55:53;;;;;;;45.55;12.90;;;;;;;-1.92;100.00;100020.25;4991233;28;20373;-81
2022/01/27 05:58:19;;;;;;;48.67;12.73;;;;;;;-2.20;100.00;99990.16;5004578;28;20117;-81
2022/01/27 06:00:45;;;;;;;44.38;11.40;;;;;;;-2.15;100.00;100001.28;4987958;28;20035;-76
2022/01/27 06:03:10;;;;;;;43.20;13.20;;;;;;;-1.97;100.00;100033.78;4986232;28;20370;-75
2022/01/27 06:05:35;;;;;;;41.83;11.40;;;;;;;-1.90;100.00;100032.47;4984367;28;20045;-76
2022/01/27 06:08:00;;;;;;;38.78;11.40;;;;;;;-1.91;100.00;100038.75;4980673;28;20027;-78
2022/01/27 06:10:26;;;;;;;39.65;12.88;;;;;;;-1.86;100.00;100035.78;4982445;28;20038;-75
2022/01/27 06:12:58;;;;;;;30.55;11.43;;;;;;;-1.77;100.00;100052.00;4976978;28;20031;-75
2022/01/27 06:15:25;;;;;;;42.20;12.18;;;;;;;-1.90;100.00;100034.28;4979187;28;20053;-74
2022/01/27 06:17:50;;;;;;;47.50;13.48;;;;;;;-1.89;100.00;100020.06;4981167;28;20476;-74
2022/01/27 06:20:17;;;;;;;35.83;11.85;;;;;;;-1.80;100.00;100041.59;4983443;28;20153;-76
2022/01/27 06:22:43;;;;;;;40.08;11.45;;;;;;;-1.94;100.00;100022.16;4987510;28;20057;-78
2022/01/27 06:25:10;;;;;;;44.88;11.98;;;;;;;-2.02;100.00;100023.50;4984025;28;20112;-73
2022/01/27 06:27:36;;;;;;;42.72;12.50;;;;;;;-1.87;100.00;100045.56;4990335;28;20048;-76
2022/01/27 06:30:04;;;;;;;44.40;12.63;;;;;;;-1.90;100.00;100034.28;4982674;28;20393;-75
2022/01/27 06:32:30;;;;;;;48.15;13.27;;;;;;;-1.95;100.00;100049.63;4984338;28;20647;-71
2022/01/27 06:34:55;;;;;;;46.67;12.88;;;;;;;-2.00;100.00;100053.41;4981536;28;20116;-71
2022/01/27 06:37:20;;;;;;;48.28;13.98;;;;;;;-2.07;100.00;100060.03;4976692;28;20195;-71
2022/01/27 06:39:46;;;;;;;45.20;12.55;;;;;;;-2.13;100.00;100036.53;4983000;28;20058;-71
2022/01/27 06:42:11;;;;;;;48.47;13.65;;;;;;;-2.01;100.00;100048.19;4986408;28;20145;-77
2022/01/27 06:44:36;;;;;;;39.25;12.43;;;;;;;-1.86;100.00;100051.69;4988106;28;20026;-71
2022/01/27 06:47:03;;;;;;;53.85;13.30;;;;;;;-1.89;100.00;100047.44;4985637;28;20476;-73
2022/01/27 06:49:28;;;;;;;49.00;13.60;;;;;;;-2.01;100.00;100038.44;4991770;28;20034;-77
2022/01/27 06:51:53;;;;;;;46.20;14.20;;;;;;;-1.96;100.00;100032.88;4990109;28;20032;-74
2022/01/27 06:54:19;;;;;;;44.22;12.75;;;;;;;-2.03;100.00;100019.13;4991812;28;20042;-76
2022/01/27 06:56:45;;;;;;;43.72;12.00;;;;;;;-2.10;100.00;100012.47;4987342;28;20030;-76
2022/01/27 06:59:11;;;;;;;47.47;14.25;;;;;;;-1.82;100.00;100056.72;4983799;28;20369;-79
2022/01/27 07:01:36;;;;;;;43.20;14.25;;;;;;;-1.85;100.00;100058.72;4979637;28;20036;-74
2022/01/27 07:04:02;;;;;;;41.75;13.75;;;;;;;-1.86;100.00;100068.50;4985595;28;20089;-79
2022/01/27 07:06:28;;;;;;;41.75;12.55;;;;;;;-1.92;100.00;100063.53;4986553;28;20026;-78
2022/01/27 07:08:53;;;;;;;44.30;11.95;;;;;;;-1.93;100.00;100074.25;4983423;28;20082;-73
2022/01/27 07:11:19;;;;;;;43.65;13.02;;;;;;;-1.95;100.00;100076.16;4984276;28;20030;-73
2022/01/27 07:13:44;;;;;;;51.72;14.57;;;;;;;-2.02;100.00;100062.38;4986519;28;20058;-76
2022/01/27 07:16:10;;;;;;;49.58;13.23;;;;;;;-1.92;100.00;100078.59;4987813;28;20496;-78
2022/01/27 07:18:36;;;;;;;45.55;12.80;;;;;;;-2.01;100.00;100078.22;4984065;28;20041;-78
2022/01/27 07:21:03;;;;;;;41.08;12.43;;;;;;;-2.00;100.00;100079.91;4989937;28;20028;-79
2022/01/27 07:23:28;;;;;;;41.38;11.90;;;;;;;-2.17;100.00;100069.50;4979719;28;20050;-76
2022/01/27 07:25:54;;;;;;;42.88;12.73;;;;;;;-2.15;100.00;100067.56;4989649;28;20109;-74
2022/01/27 07:28:19;;;;;;;40.17;12.30;;;;;;;-2.09;100.00;100074.34;4980167;28;20118;-81
2022/01/27 07:30:44;;;;;;;33.97;10.82;;;;;;;-2.18;100.00;100072.22;4980096;28;20045;-75
2022/01/27 07:33:10;;;;;;;39.15;11.80;;;;;;;-2.10;100.00;100073.44;4979138;28;20023;-75
2022/01/27 07:35:35;;;;;;;35.50;10.90;;;;;;;-2.10;100.00;100092.00;4984623;28;20073;-81
2022/01/27 07:38:00;;;;;;;39.47;11.68;;;;;;;-2.12;100.00;100078.03;4986554;28;20092;-77
2022/01/27 07:40:26;;;;;;;34.25;10.85;;;;;;;-2.13;100.00;100059.53;4984120;28;20026;-79
2022/01/27 07:42:51;;;;;;;39.25;10.95;;;;;;;-2.05;100.00;100084.63;4979812;28;20477;-74
2022/01/27 07:45:16;;;;;;;34.00;11.85;;;;;;;-2.15;100.00;100075.53;4988298;28;20026;-74
2022/01/27 07:47:42;;;;;;;39.03;11.40;;;;;;;-2.11;100.00;100078.88;4981304;28;20439;-72
2022/01/27 07:50:08;;;;;;;40.97;10.70;;;;;;;-2.18;100.00;100069.56;4982234;28;20031;-77
2022/01/27 07:52:33;;;;;;;37.88;10.23;;;;;;;-2.13;100.00;100063.03;4980887;28;20089;-73
2022/01/27 07:54:58;;;;;;;36.30;11.63;;;;;;;-2.07;100.00;100072.41;4974371;28;20137;-73
2022/01/27 07:57:24;;;;;;;41.78;11.90;;;;;;;-2.06;100.00;100080.28;4976332;28;20077;-73
2022/01/27 07:59:49;;;;;;;45.92;12.38;;;;;;;-1.95;100.00;100084.94;4987546;28;20031;-73
2022/01/27 08:02:15;;;;;;;36.72;10.50;;;;;;;-2.07;100.00;100056.50;4981303;28;20030;-73
2022/01/27 08:04:41;;;;;;;37.55;11.48;;;;;;;-1.99;100.00;100076.34;4985998;28;20061;-73
2022/01/27 08:07:08;;;;;;;36.08;11.30;;;;;;;-2.05;100.00;100067.88;4980740;28;20062;-75
2022/01/27 08:09:33;;;;;;;38.53;10.45;;;;;;;-2.06;99.80;100072.34;4983840;28;20677;-78
2022/01/27 08:11:59;;;;;;;35.45;9.95;;;;;;;-2.11;99.56;100069.09;4987038;28;20061;-78
2022/01/27 08:14:24;;;;;;;33.10;10.73;;;;;;;-2.09;98.88;100056.63;4973193;28;20030;-75
2022/01/27 08:16:50;;;;;;;32.15;9.57;;;;;;;-2.05;98.66;100063.44;4978128;28;20030;-74
2022/01/27 08:19:15;;;;;;;32.38;10.85;;;;;;;-2.11;99.27;100061.16;4979630;28;20023;-75
2022/01/27 08:21:40;;;;;;;32.67;10.20;;;;;;;-2.14;99.36;100061.34;4988564;28;20666;-72
2022/01/27 08:24:06;;;;;;;27.55;8.38;;;;;;;-2.14;98.58;100049.91;4987538;28;20033;-75
2022/01/27 08:29:09;;;;;;;22.13;7.38;;;;;;;-2.10;97.29;100051.41;4980731;28;20026;-76
2022/01/27 08:31:43;;;;;;;29.05;9.30;;;;;;;-2.23;98.37;100053.94;4980219;28;20034;-74
2022/01/27 08:34:14;;;;;;;33.60;10.02;;;;;;;-2.07;98.60;100041.47;4982540;28;20085;-73
2022/01/27 08:36:41;;;;;;;27.67;7.95;;;;;;;-2.11;98.02;100049.69;4983607;28;20037;-74
2022/01/27 08:39:06;;;;;;;23.58;7.57;;;;;;;-2.25;99.12;100045.22;4982869;28;20026;-74
2022/01/27 08:41:31;;;;;;;29.73;7.95;;;;;;;-2.15;99.44;100041.06;4982139;28;20049;-73
2022/01/27 08:43:57;;;;;;;25.45;8.43;;;;;;;-1.96;98.78;100040.81;4982541;28;20482;-78
2022/01/27 08:46:22;;;;;;;30.67;9.18;;;;;;;-2.02;98.46;100031.44;4982741;28;20018;-75
2022/01/27 08:48:47;;;;;;;23.08;8.02;;;;;;;-1.91;99.02;100048.47;4973187;28;20700;-75
2022/01/27 08:51:14;;;;;;;23.55;7.90;;;;;;;-1.92;98.26;100030.88;4978368;28;20030;-73
2022/01/27 08:53:40;;;;;;;28.33;8.43;;;;;;;-1.84;98.22;100024.13;4977844;28;20026;-74
2022/01/27 08:56:05;;;;;;;31.38;8.57;;;;;;;-1.71;96.93;100040.16;4978967;28;20030;-77
2022/01/27 08:58:31;;;;;;;22.67;8.23;;;;;;;-1.68;97.38;100039.97;4981914;28;20503;-76
2022/01/27 09:00:57;;;;;;;30.75;9.55;;;;;;;-1.77;98.23;100044.03;4989453;28;20021;-75
2022/01/27 09:03:23;;;;;;;24.73;8.48;;;;;;;-1.79;97.70;100010.59;4997244;28;20041;-73
2022/01/27 09:05:48;;;;;;;26.48;8.70;;;;;;;-1.53;97.70;100040.81;5001463;28;20031;-73
2022/01/27 09:08:17;;;;;;;28.50;8.52;;;;;;;-1.75;97.34;99993.56;5002256;28;20296;-73
2022/01/27 09:10:42;;;;;;;29.90;9.32;;;;;;;-1.80;98.35;100009.75;5005094;28;20050;-79
2022/01/27 09:13:08;;;;;;;28.00;9.77;;;;;;;-1.75;98.71;100014.78;4999480;28;20030;-74
2022/01/27 09:15:33;;;;;;;28.55;9.50;;;;;;;-1.44;98.39;100028.75;5010118;28;20034;-77
2022/01/27 09:17:59;;;;;;;28.10;9.95;;;;;;;-1.83;97.74;99998.50;4999089;28;20022;-73
2022/01/27 09:20:25;;;;;;;31.38;9.23;;;;;;;-1.48;98.09;100020.16;4987961;28;20061;-74
2022/01/27 09:22:53;;;;;;;28.15;10.10;;;;;;;-1.41;97.54;100015.31;4977524;28;20027;-73
2022/01/27 09:25:23;;;;;;;28.70;9.40;;;;;;;-1.38;97.40;100005.34;4980469;28;20117;-72
2022/01/27 09:27:49;;;;;;;38.97;11.43;;;;;;;-1.26;96.38;100008.16;4980511;28;20026;-74
2022/01/27 09:30:17;;;;;;;36.28;11.05;;;;;;;-1.47;97.39;99994.44;4989669;28;20030;-74
2022/01/27 09:32:43;;;;;;;34.53;11.63;;;;;;;-1.36;97.41;100003.44;4988361;28;20562;-75
2022/01/27 09:35:08;;;;;;;33.10;10.98;;;;;;;-1.16;96.64;100026.06;4988925;28;20030;-72
2022/01/27 09:37:34;;;;;;;39.50;11.90;;;;;;;-1.17;96.75;100026.16;4984335;28;20084;-69
2022/01/27 09:40:00;;;;;;;36.80;11.50;;;;;;;-1.20;97.24;100027.22;4977058;28;20072;-72
2022/01/27 09:42:28;;;;;;;43.88;12.73;;;;;;;-1.42;98.41;100003.81;4978308;28;20492;-73
2022/01/27 09:44:55;;;;;;;42.05;11.65;;;;;;;-1.26;98.54;100032.06;4983482;28;20481;-73
2022/01/27 09:47:27;;;;;;;53.00;13.88;;;;;;;-1.44;99.35;100005.75;4984636;28;20031;-71
2022/01/27 09:50:04;;;;;;;43.70;12.10;;;;;;;-1.43;99.83;99999.47;4982699;28;20030;-73
2022/01/27 09:52:29;;;;;;;41.10;13.43;;;;;;;-1.22;99.13;100004.38;4988275;28;20037;-77
2022/01/27 09:54:55;;;;;;;37.92;13.57;;;;;;;-1.20;100.00;100003.31;4985097;28;20045;-75
2022/01/27 09:57:20;;;;;;;44.85;14.32;;;;;;;-0.98;98.95;100009.88;4989797;28;20026;-77
2022/01/27 09:59:46;;;;;;;42.25;13.68;;;;;;;-0.99;98.78;100014.34;4985342;28;20038;-75
2022/01/27 10:02:17;;;;;;;39.83;13.05;;;;;;;-0.96;98.69;100003.53;4988440;28;20034;-75
2022/01/27 10:04:43;;;;;;;36.30;11.35;;;;;;;-0.88;97.78;100000.38;4980680;28;20015;-76
2022/01/27 10:07:10;;;;;;;44.22;11.60;;;;;;;-0.90;97.07;99988.97;4997777;28;20030;-76
2022/01/27 10:09:36;;;;;;;41.17;12.55;;;;;;;-0.97;98.00;99977.03;4992592;28;20019;-77
2022/01/27 10:12:03;;;;;;;38.25;12.25;;;;;;;-0.94;97.90;99982.19;4992012;28;20072;-76
2022/01/27 10:14:36;;;;;;;39.13;12.32;;;;;;;-0.71;96.39;99997.44;4990656;28;20022;-76
2022/01/27 10:17:12;;;;;;;35.90;11.43;;;;;;;-0.58;95.39;99985.97;4993991;28;20050;-74
2022/01/27 10:19:39;;;;;;;29.42;10.75;;;;;;;-0.47;94.28;99989.63;4990796;28;20026;-76
2022/01/27 10:22:07;;;;;;;32.05;12.40;;;;;;;-0.41;93.44;99991.00;4978035;28;20043;-74
2022/01/27 10:24:34;;;;;;;34.53;10.65;;;;;;;-0.26;93.83;99999.75;4986257;28;20023;-75
2022/01/27 10:27:20;;;;;;;31.02;11.18;;;;;;;-0.29;92.90;100000.81;4988515;28;20092;-77
2022/01/27 10:30:36;;;;;;;35.05;11.25;;;;;;;-0.57;93.97;99987.69;4983984;28;20034;-76
2022/01/27 10:32:43;;;;;;;31.52;10.43;;;;;;;-0.43;94.32;99987.59;4977778;28;20045;-75
2022/01/27 10:35:11;;;;;;;34.03;11.50;;;;;;;-0.29;93.90;99992.84;4985201;28;20130;-78
2022/01/27 10:38:07;;;;;;;29.85;11.63;;;;;;;-0.38;93.40;99990.81;4972312;28;20026;-78
2022/01/27 10:40:39;;;;;;;30.92;10.32;;;;;;;-0.30;93.62;99971.66;4990405;28;20034;-72
2022/01/27 10:43:19;;;;;;;30.35;11.82;;;;;;;-0.28;93.52;99970.59;4993521;28;20034;-73
2022/01/27 10:46:10;;;;;;;32.85;10.90;;;;;;;-0.19;92.98;99981.56;4988954;28;20019;-76
2022/01/27 10:48:47;;;;;;;35.42;11.63;;;;;;;-0.10;92.33;99971.16;5008184;28;20026;-77
2022/01/27 10:51:23;;;;;;;31.48;11.40;;;;;;;0.05;92.66;99977.19;4993924;28;20515;-76
2022/01/27 10:56:29;;;;;;;35.95;11.35;;;;;;;-0.01;92.59;99959.00;4986044;28;20027;-76
2022/01/27 10:58:57;;;;;;;27.63;10.60;;;;;;;0.20;91.27;99953.97;4976452;28;20030;-76
2022/01/27 11:01:37;;;;;;;33.42;11.57;;;;;;;0.21;91.31;99977.84;4988051;28;20034;-79
2022/01/27 11:04:04;;;;;;;32.17;11.00;;;;;;;0.25;90.96;99951.00;4983914;28;20496;-79
2022/01/27 11:06:32;;;;;;;27.25;9.95;;;;;;;0.26;91.63;99950.03;4983152;28;20023;-79
2022/01/27 11:09:00;;;;;;;29.15;10.70;;;;;;;0.45;91.34;99961.06;4985366;28;20023;-79
2022/01/27 11:11:27;;;;;;;26.88;9.80;;;;;;;0.54;90.67;99955.06;4986802;28;20353;-79
2022/01/27 11:13:54;;;;;;;28.30;9.70;;;;;;;0.47;90.59;99959.13;4989490;28;20034;-79
2022/01/27 11:16:29;;;;;;;25.95;9.88;;;;;;;0.68;90.76;99958.53;4986600;28;20480;-80
2022/01/27 11:19:13;;;;;;;27.05;9.35;;;;;;;0.74;90.27;99955.44;4992083;28;20132;-80
2022/01/27 11:21:42;;;;;;;27.88;10.30;;;;;;;0.64;89.28;99929.47;4992450;28;20372;-79
2022/01/27 11:24:23;;;;;;;28.85;11.10;;;;;;;0.60;89.86;99930.69;4974917;28;20027;-72
2022/01/27 11:26:53;;;;;;;24.55;9.55;;;;;;;0.79;89.96;99946.16;4981449;28;20076;-72
2022/01/27 11:29:20;;;;;;;28.98;10.00;;;;;;;0.84;89.46;99953.81;4997365;28;20034;-72
2022/01/27 11:32:12;;;;;;;31.15;10.32;;;;;;;0.95;88.36;99950.34;4991486;28;20037;-72
2022/01/27 11:34:50;;;;;;;21.63;8.48;;;;;;;0.87;89.60;99938.44;4984179;28;20392;-72
2022/01/27 11:37:18;;;;;;;26.05;9.15;;;;;;;0.87;88.65;99933.13;4985941;28;20030;-72
2022/01/27 11:39:53;;;;;;;24.83;8.63;;;;;;;1.05;88.86;99924.72;4978594;28;20536;-72
2022/01/27 11:42:54;;;;;;;26.17;10.35;;;;;;;1.13;87.85;99926.78;4981401;28;20038;-72
2022/01/27 11:45:35;;;;;;;24.63;8.88;;;;;;;1.14;88.00;99915.16;4990565;28;20062;-72
2022/01/27 11:48:08;;;;;;;27.77;9.93;;;;;;;1.10;88.35;99909.19;4985293;28;20089;-71
2022/01/27 11:51:09;;;;;;;29.95;11.10;;;;;;;1.20;87.49;99909.38;4985827;28;20034;-72
2022/01/27 11:53:44;;;;;;;25.38;9.73;;;;;;;1.21;87.19;99900.44;4986810;28;20077;-74
2022/01/27 11:56:27;;;;;;;23.45;9.90;;;;;;;1.42;87.07;99890.78;4983919;28;20027;-74
2022/01/27 11:58:57;;;;;;;25.33;9.50;;;;;;;1.34;86.22;99882.53;4984507;28;20141;-74
2022/01/27 12:01:29;;;;;;;24.65;9.32;;;;;;;1.46;87.36;99875.38;4981413;28;20030;-74